EPWA/WAW METAR and TAF weather

Enter ICAO airport designator
Station Type Date Time Source
EPWA METAR 2020/12/05 05:30 UTC NOAA

EPWA 050530Z 13014KT CAVOK 05/02 Q1009 NOSIG


Station Type Date Time Source
EPWA Decoded METAR 2020/12/05 05:30 UTC NOAA

Warszawa-Okecie, Poland (EPWA) 52-10N 020-58E 107M
Dec 05, 2020 - 12:30 AM EST / 2020.12.05 0530 UTC
Wind: from the SE (130 degrees) at 16 MPH (14 KT):0
Visibility: greater than 7 mile(s):0
Temperature: 41 F (5 C)
Dew Point: 35 F (2 C)
Relative Humidity: 80%
Pressure (altimeter): 29.80 in. Hg (1009 hPa)
ob: EPWA 050530Z 13014KT CAVOK 05/02 Q1009 NOSIG
cycle: 5

Station Type Date Time Source
EPWA TAF 2020/12/05 06:37 UTC NOAA

TAF EPWA 050530Z 0506/0606 13012KT CAVOK
TEMPO 0506/0517 14017G27KT PROB40
TEMPO 0517/0606 14015G25KT PROB30 0600/0606 BKN010

Example: see airport list